Circle, Alaska
Current Conditions -  °F | °C
As of 11:16 PM on Thursday 23 Oct 2014 (Local Time) from PFYU Reporting Station
Overcast Overcast  
Wind Chill: 12°   Ceiling: 1800
Heat Index: 12°   Visibility: 3mi
Dew Point:   Wind: 0mph
Humidity: 79%   Direction: NA
Pressure: 29.85"   Gusts: NA
Location:  65.83°N, 144.07°W
Report Text: PFYU 240716Z 00000KT 3SM BKN018 BKN026 OVC034 M11/M14 A2985 RMK AO1
Loading
Personal Weather Stations






























Interactive Weather Map
Tropical Storm Tracking
New forecast layout! Learn more

10-Day Weather Forecast

Advertisements
Track Severe Weather on mobile